Time;durP1;ratioP1;P1;durP2;ratioP2;P2;SDS_P1;SDS_P2;PMS_P1;PMS_P2;Temp;Humidity;BMP_temperature;BMP_pressure;BME280_temperature;BME280_humidity;BME280_pressure;Samples;Min_cycle;Max_cycle;Signal;HPM_P1;HPM_P2
2023/03/06 00:02:10;;;;;;;1.83;1.08;;;;;;;;;;5012328;28;20052;-37
2023/03/06 00:04:37;;;;;;;1.73;1.20;;;;;;;;;;5012290;28;20045;-41
2023/03/06 00:07:04;;;;;;;2.88;1.10;;;;;;;;;;5011949;28;20052;-37
2023/03/06 00:09:31;;;;;;;1.38;1.00;;;;;;;;;;5012138;28;20060;-39
2023/03/06 00:11:58;;;;;;;2.00;1.10;;;;;;;;;;5012418;28;20049;-37
2023/03/06 00:14:26;;;;;;;2.65;0.90;;;18.80;46.10;;;;;;5024910;28;20071;-41
2023/03/06 00:16:54;;;;;;;1.85;0.90;;;;;;;;;;5016977;28;20050;-40
2023/03/06 00:19:21;;;;;;;1.23;0.80;;;;;;;;;;5012285;28;20053;-40
2023/03/06 00:21:48;;;;;;;1.90;1.10;;;;;;;;;;5012034;28;20053;-38
2023/03/06 00:24:15;;;;;;;1.90;1.00;;;;;;;;;;5011423;28;20046;-39
2023/03/06 00:26:42;;;;;;;1.02;0.90;;;;;;;;;;5011912;28;20422;-39
2023/03/06 00:29:09;;;;;;;2.40;1.00;;;;;;;;;;5025285;28;20053;-40
2023/03/06 00:31:38;;;;;;;1.73;1.00;;;;;;;;;;5031717;28;20053;-37
2023/03/06 00:34:05;;;;;;;1.25;1.00;;;;;;;;;;5021008;28;20046;-41
2023/03/06 00:36:32;;;;;;;1.38;0.90;;;;;;;;;;5011397;28;20052;-40
2023/03/06 00:38:59;;;;;;;1.88;0.98;;;;;;;;;;5012193;28;20050;-37
2023/03/06 00:41:26;;;;;;;1.70;0.93;;;;;;;;;;5012095;28;20053;-41
2023/03/06 00:43:53;;;;;;;1.08;0.73;;;;;;;;;;5011671;28;20042;-40
2023/03/06 00:46:21;;;;;;;2.13;1.00;;;;;;;;;;5011944;28;20083;-41
2023/03/06 00:48:49;;;;;;;2.05;1.10;;;;;;;;;;5011948;28;20414;-40
2023/03/06 00:51:18;;;;;;;1.60;1.00;;;17.40;76.50;;;;;;5011814;28;20487;-37
2023/03/06 00:53:45;;;;;;;2.10;0.98;;;;;;;;;;5011480;28;20475;-37
2023/03/06 00:56:12;;;;;;;1.27;0.88;;;;;;;;;;5011577;28;20057;-37
2023/03/06 00:58:39;;;;;;;1.10;0.90;;;;;;;;;;5027582;28;20395;-36
2023/03/06 01:01:06;;;;;;;0.98;0.70;;;;;;;;;;5031548;28;20064;-37
2023/03/06 01:03:33;;;;;;;1.02;0.77;;;;;;;;;;5031138;28;20043;-35
2023/03/06 01:06:01;;;;;;;1.33;0.80;;;18.50;45.00;;;;;;5031317;28;20049;-40
2023/03/06 01:08:28;;;;;;;1.17;1.00;;;;;;;;;;5031621;28;20418;-41
2023/03/06 01:10:55;;;;;;;0.90;0.80;;;;;;;;;;5031114;28;20146;-40
2023/03/06 01:13:22;;;;;;;1.90;1.00;;;;;;;;;;5030272;28;20475;-40
2023/03/06 01:15:49;;;;;;;2.22;1.10;;;;;;;;;;5024882;28;20053;-41
2023/03/06 01:18:16;;;;;;;1.90;1.13;;;18.70;77.70;;;;;;5011485;28;20064;-38
2023/03/06 01:20:43;;;;;;;1.95;0.82;;;;;;;;;;5014569;28;20050;-41
2023/03/06 01:23:12;;;;;;;1.48;0.90;;;;;;;;;;5015045;28;20068;-39
2023/03/06 01:25:39;;;;;;;2.40;1.00;;;;;;;;;;5015160;28;20054;-40
2023/03/06 01:28:06;;;;;;;2.05;1.02;;;;;;;;;;5033801;28;20453;-37
2023/03/06 01:30:33;;;;;;;1.13;0.80;;;;;;;;;;5022535;28;20392;-38
2023/03/06 01:33:00;;;;;;;1.15;0.77;;;;;;;;;;5014652;28;20658;-40
2023/03/06 01:35:27;;;;;;;1.60;0.90;;;;;;;;;;5015076;28;20050;-37
2023/03/06 01:37:54;;;;;;;1.55;0.85;;;;;;;;;;5014569;28;20056;-40
2023/03/06 01:40:22;;;;;;;1.48;0.80;;;18.20;47.60;;;;;;5015165;28;20085;-41
2023/03/06 01:42:49;;;;;;;1.50;0.90;;;;;;;;;;5014605;28;20075;-39
2023/03/06 01:45:59;;;;;;;2.65;1.00;;;18.10;43.60;;;;;;5014777;28;20057;-36
2023/03/06 01:48:26;;;;;;;1.38;1.00;;;;;;;;;;5004294;28;20056;-40
2023/03/06 01:50:53;;;;;;;2.08;1.00;;;;;;;;;;5014892;28;20068;-37
2023/03/06 01:53:20;;;;;;;1.55;0.85;;;;;;;;;;5014410;28;20053;-41
2023/03/06 01:55:49;;;;;;;1.02;0.80;;;;;;;;;;5017909;28;20125;-41
2023/03/06 01:58:16;;;;;;;1.38;0.70;;;18.00;45.50;;;;;;5014780;28;20060;-36
2023/03/06 02:00:43;;;;;;;2.00;1.00;;;;;;;;;;5014781;28;20430;-39
2023/03/06 02:03:11;;;;;;;1.63;0.95;;;18.00;46.90;;;;;;5014134;28;20518;-40
2023/03/06 02:05:38;;;;;;;1.08;0.80;;;;;;;;;;5014373;28;20056;-36
2023/03/06 02:08:05;;;;;;;1.17;0.88;;;;;;;;;;5014509;28;20397;-39
2023/03/06 02:10:32;;;;;;;1.45;0.85;;;;;;;;;;5024296;28;20049;-36
2023/03/06 02:13:00;;;;;;;1.10;0.75;;;18.00;48.00;;;;;;5033356;28;20045;-39
2023/03/06 02:15:27;;;;;;;1.63;0.85;;;;;;;;;;5030557;28;20060;-39
2023/03/06 02:17:54;;;;;;;0.80;0.57;;;;;;;;;;5014264;28;20056;-39
2023/03/06 02:20:24;;;;;;;1.20;0.80;;;17.80;45.70;;;;;;5014221;28;20447;-37
2023/03/06 02:22:53;;;;;;;0.90;0.70;;;;;;;;;;5013845;28;20050;-41
2023/03/06 02:25:34;;;;;;;0.77;0.77;;;;;;;;;;5014152;28;20430;-40
2023/03/06 02:28:01;;;;;;;0.95;0.70;;;;;;;;;;5014159;28;20132;-41
2023/03/06 02:30:28;;;;;;;1.52;0.80;;;;;;;;;;5013601;28;20053;-40
2023/03/06 02:32:55;;;;;;;1.13;0.70;;;18.00;78.10;;;;;;5013630;28;20072;-38
2023/03/06 02:35:22;;;;;;;1.00;0.70;;;;;;;;;;5013860;28;20076;-41
2023/03/06 02:37:49;;;;;;;0.88;0.70;;;;;;;;;;5013472;28;20046;-40
2023/03/06 02:40:16;;;;;;;0.73;0.60;;;;;;;;;;5013961;28;20056;-39
2023/03/06 02:42:47;;;;;;;1.02;0.60;;;17.90;48.30;;;;;;5013765;28;20049;-40
2023/03/06 02:45:14;;;;;;;0.75;0.60;;;;;;;;;;5013679;28;20045;-40
2023/03/06 02:47:41;;;;;;;0.80;0.70;;;;;;;;;;5013689;28;20050;-40
2023/03/06 02:50:08;;;;;;;1.42;0.65;;;;;;;;;;5013627;28;20056;-41
2023/03/06 02:52:35;;;;;;;0.50;0.50;;;;;;;;;;5013547;28;20049;-39
2023/03/06 02:55:03;;;;;;;0.68;0.50;;;;;;;;;;5018317;28;20042;-39
2023/03/06 02:57:30;;;;;;;0.68;0.68;;;;;;;;;;5033472;28;20045;-39
2023/03/06 02:59:58;;;;;;;0.63;0.60;;;18.00;48.20;;;;;;5033314;28;20055;-36
2023/03/06 03:02:25;;;;;;;0.65;0.50;;;;;;;;;;5031056;28;20057;-40
2023/03/06 03:04:52;;;;;;;0.47;0.40;;;;;;;;;;5033282;28;20397;-40
2023/03/06 03:07:19;;;;;;;0.52;0.52;;;;;;;;;;5032943;28;20609;-38
2023/03/06 03:09:46;;;;;;;0.50;0.50;;;;;;;;;;5024756;28;20045;-39
2023/03/06 03:12:13;;;;;;;0.40;0.40;;;;;;;;;;5013019;28;20049;-38
2023/03/06 03:14:40;;;;;;;0.95;0.95;;;;;;;;;;5012984;28;20050;-39
2023/03/06 03:17:09;;;;;;;0.32;0.32;;;;;;;;;;5013009;28;20050;-41
2023/03/06 03:19:36;;;;;;;0.50;0.50;;;;;;;;;;5013136;28;20487;-36
2023/03/06 03:22:03;;;;;;;0.40;0.40;;;;;;;;;;5012536;28;20046;-38
2023/03/06 03:24:30;;;;;;;0.50;0.50;;;;;;;;;;5012936;28;20048;-39
2023/03/06 03:26:57;;;;;;;0.50;0.40;;;;;;;;;;5013127;28;20059;-40
2023/03/06 03:29:24;;;;;;;0.47;0.47;;;;;;;;;;5012624;28;20050;-38
2023/03/06 03:31:51;;;;;;;0.40;0.40;;;;;;;;;;5013056;28;20050;-38
2023/03/06 03:34:20;;;;;;;0.63;0.60;;;;;;;;;;5012719;28;20042;-39
2023/03/06 03:36:47;;;;;;;0.43;0.43;;;;;;;;;;5012301;28;20052;-40
2023/03/06 03:39:14;;;;;;;0.40;0.40;;;;;;;;;;5012916;28;20046;-39
2023/03/06 03:41:41;;;;;;;0.52;0.47;;;;;;;;;;5012176;28;20060;-39
2023/03/06 03:44:08;;;;;;;0.50;0.47;;;;;;;;;;5012220;28;20050;-41
2023/03/06 03:46:35;;;;;;;0.20;0.20;;;;;;;;;;5012646;28;20050;-38
2023/03/06 03:49:02;;;;;;;2.53;0.50;;;;;;;;;;5012632;28;20056;-40
2023/03/06 03:51:30;;;;;;;0.75;0.50;;;18.60;47.40;;;;;;5012554;28;20046;-38
2023/03/06 03:53:57;;;;;;;0.50;0.50;;;;;;;;;;5012375;28;20113;-37
2023/03/06 03:56:25;;;;;;;0.40;0.40;;;;;;;;;;5026251;28;20052;-38
2023/03/06 03:58:52;;;;;;;1.08;0.60;;;;;;;;;;5032399;28;20053;-39
2023/03/06 04:01:19;;;;;;;0.28;0.28;;;;;;;;;;5032323;28;20050;-38
2023/03/06 04:03:46;;;;;;;0.38;0.38;;;;;;;;;;5031722;28;20425;-41
2023/03/06 04:06:13;;;;;;;0.25;0.25;;;;;;;;;;5031975;28;20057;-38
2023/03/06 04:08:41;;;;;;;0.43;0.40;;;18.70;47.20;;;;;;5032010;28;20115;-40
2023/03/06 04:11:08;;;;;;;0.80;0.50;;;;;;;;;;5017469;28;20046;-39
2023/03/06 04:13:35;;;;;;;0.43;0.40;;;;;;;;;;5012206;28;20048;-37
2023/03/06 04:16:02;;;;;;;0.40;0.35;;;;;;;;;;5012167;28;20056;-41
2023/03/06 04:18:29;;;;;;;0.40;0.40;;;;;;;;;;5012107;28;20056;-36
2023/03/06 04:20:56;;;;;;;0.30;0.30;;;;;;;;;;5012275;28;20388;-41
2023/03/06 04:23:24;;;;;;;0.30;0.30;;;;;;;;;;5011646;28;20506;-39
2023/03/06 04:25:52;;;;;;;0.60;0.40;;;18.90;46.60;;;;;;5012190;28;20051;-40
2023/03/06 04:28:19;;;;;;;1.13;0.50;;;;;;;;;;5011977;28;20056;-41
2023/03/06 04:30:46;;;;;;;0.50;0.50;;;;;;;;;;5012198;28;20050;-36
2023/03/06 04:33:12;;;;;;;0.43;0.40;;;17.90;76.50;;;;;;5011803;28;20046;-40
2023/03/06 04:35:39;;;;;;;0.75;0.45;;;;;;;;;;5012081;28;20052;-39
2023/03/06 04:38:06;;;;;;;0.50;0.50;;;;;;;;;;5011452;28;20053;-38
2023/03/06 04:40:34;;;;;;;0.57;0.40;;;;;;;;;;5011831;28;20045;-40
2023/03/06 04:43:02;;;;;;;1.38;0.60;;;;;;;;;;5011651;28;20396;-41
2023/03/06 04:45:29;;;;;;;3.97;0.50;;;;;;;;;;5011958;28;20050;-41
2023/03/06 04:47:56;;;;;;;0.45;0.45;;;;;;;;;;5012030;28;20143;-36
2023/03/06 04:50:24;;;;;;;0.40;0.40;;;;;;;;;;5011741;28;20136;-41
2023/03/06 04:52:51;;;;;;;1.15;0.60;;;;;;;;;;5011686;28;20079;-33
2023/03/06 04:55:19;;;;;;;0.57;0.40;;;;;;;;;;5035252;28;20046;-40
2023/03/06 04:57:46;;;;;;;0.50;0.50;;;;;;;;;;5035752;28;20049;-39
2023/03/06 05:00:16;;;;;;;0.65;0.52;;;18.90;46.70;;;;;;5035719;28;20049;-39
2023/03/06 05:02:43;;;;;;;1.02;0.45;;;;;;;;;;5035140;28;20055;-37
2023/03/06 05:05:10;;;;;;;0.40;0.40;;;;;;;;;;5035419;28;20046;-40
2023/03/06 05:07:37;;;;;;;0.70;0.50;;;18.80;74.90;;;;;;5035207;28;20050;-40
2023/03/06 05:10:04;;;;;;;0.43;0.43;;;;;;;;;;5007379;28;20053;-39
2023/03/06 05:12:32;;;;;;;0.40;0.40;;;;;;;;;;5015264;28;20054;-40
2023/03/06 05:14:59;;;;;;;0.40;0.40;;;;;;;;;;5015398;28;20053;-39
2023/03/06 05:17:27;;;;;;;0.60;0.60;;;;;;;;;;5015151;28;20054;-37
2023/03/06 05:19:54;;;;;;;0.52;0.50;;;;;;;;;;5015466;28;20130;-40
2023/03/06 05:22:21;;;;;;;0.47;0.47;;;;;;;;;;5015754;28;20056;-36
2023/03/06 05:24:48;;;;;;;0.88;0.50;;;;;;;;;;5015209;28;20049;-40
2023/03/06 05:27:15;;;;;;;0.50;0.50;;;;;;;;;;5015573;28;20050;-39
2023/03/06 05:29:42;;;;;;;0.50;0.50;;;;;;;;;;5015163;28;20076;-41
2023/03/06 05:32:09;;;;;;;0.43;0.43;;;;;;;;;;5015275;28;20121;-39
2023/03/06 05:34:38;;;;;;;0.30;0.30;;;;;;;;;;5014976;28;20403;-40
2023/03/06 05:37:05;;;;;;;0.50;0.50;;;;;;;;;;5014803;28;20513;-40
2023/03/06 05:39:32;;;;;;;0.40;0.40;;;;;;;;;;5015188;28;20054;-36
2023/03/06 05:41:59;;;;;;;0.63;0.43;;;;;;;;;;5014990;28;20050;-40
2023/03/06 05:44:30;;;;;;;1.38;0.70;;;19.00;44.10;;;;;;5014866;28;20403;-36
2023/03/06 05:46:57;;;;;;;0.40;0.40;;;;;;;;;;5014910;28;20385;-41
2023/03/06 05:49:24;;;;;;;0.43;0.43;;;;;;;;;;5014900;28;20487;-39
2023/03/06 05:51:52;;;;;;;0.30;0.30;;;18.90;46.60;;;;;;5020501;28;20417;-39
2023/03/06 05:54:20;;;;;;;1.20;0.50;;;;;;;;;;5033621;28;20073;-40
2023/03/06 05:56:47;;;;;;;0.60;0.50;;;;;;;;;;5034536;28;20053;-40
2023/03/06 05:59:14;;;;;;;0.40;0.40;;;;;;;;;;5034678;28;20056;-40
2023/03/06 06:01:41;;;;;;;0.50;0.50;;;;;;;;;;5034316;28;20184;-40
2023/03/06 06:04:10;;;;;;;0.43;0.43;;;;;;;;;;5031861;28;20064;-40
2023/03/06 06:06:37;;;;;;;0.57;0.45;;;;;;;;;;5014171;28;20156;-39
2023/03/06 06:09:05;;;;;;;1.25;0.77;;;19.00;46.70;;;;;;5014852;28;20092;-41
2023/03/06 06:11:32;;;;;;;0.40;0.30;;;;;;;;;;5014240;28;20435;-39
2023/03/06 06:14:00;;;;;;;0.95;0.47;;;;;;;;;;5014164;28;20399;-40
2023/03/06 06:16:27;;;;;;;0.40;0.40;;;;;;;;;;5014349;28;20050;-36
2023/03/06 06:18:53;;;;;;;0.50;0.50;;;19.40;76.80;;;;;;5014396;28;20071;-40
2023/03/06 06:21:20;;;;;;;0.30;0.30;;;;;;;;;;5014572;28;20049;-37
2023/03/06 06:23:47;;;;;;;0.30;0.30;;;;;;;;;;5014145;28;20049;-35
2023/03/06 06:26:15;;;;;;;0.40;0.40;;;19.10;46.70;;;;;;5014082;28;20079;-40
2023/03/06 06:28:43;;;;;;;0.55;0.47;;;;;;;;;;5014169;28;20060;-39
2023/03/06 06:31:10;;;;;;;0.43;0.43;;;;;;;;;;5014363;28;20056;-39
2023/03/06 06:33:37;;;;;;;0.90;0.60;;;;;;;;;;5014000;28;20384;-40
2023/03/06 06:36:05;;;;;;;0.32;0.30;;;;;;;;;;5024952;28;20490;-39
2023/03/06 06:38:33;;;;;;;0.50;0.40;;;;;;;;;;5013975;28;20050;-37
2023/03/06 06:41:00;;;;;;;0.50;0.50;;;;;;;;;;5013899;28;20056;-38
2023/03/06 06:43:28;;;;;;;0.50;0.50;;;19.10;46.60;;;;;;5013541;28;20060;-38
2023/03/06 06:45:55;;;;;;;0.60;0.40;;;;;;;;;;5013609;28;20056;-38
2023/03/06 06:48:22;;;;;;;0.50;0.50;;;;;;;;;;5013877;28;20050;-37
2023/03/06 06:50:55;;;;;;;0.70;0.50;;;19.10;46.30;;;;;;5013988;28;20057;-39
2023/03/06 06:53:22;;;;;;;0.93;0.60;;;;;;;;;;5013363;28;20488;-37
2023/03/06 06:55:49;;;;;;;0.45;0.45;;;;;;;;;;5013702;28;20050;-41
2023/03/06 06:58:16;;;;;;;0.50;0.50;;;;;;;;;;5013348;28;20072;-37
2023/03/06 07:00:44;;;;;;;0.65;0.40;;;;;;;;;;5013184;28;20053;-37
2023/03/06 07:03:12;;;;;;;0.55;0.50;;;;;;;;;;5012800;28;20054;-39
2023/03/06 07:05:39;;;;;;;0.32;0.32;;;;;;;;;;5015693;28;20567;-40
2023/03/06 07:08:06;;;;;;;0.47;0.47;;;;;;;;;;5013323;28;20050;-37
2023/03/06 07:10:34;;;;;;;0.57;0.50;;;;;;;;;;5006345;28;20050;-40
2023/03/06 07:13:01;;;;;;;0.35;0.35;;;;;;;;;;4997233;28;20069;-38
2023/03/06 07:15:29;;;;;;;0.47;0.40;;;;;;;;;;4997248;28;20505;-39
2023/03/06 07:17:57;;;;;;;0.50;0.50;;;19.20;46.30;;;;;;5012484;28;20081;-38
2023/03/06 07:20:24;;;;;;;0.77;0.50;;;;;;;;;;5018810;28;20049;-41
2023/03/06 07:22:51;;;;;;;0.40;0.40;;;;;;;;;;5012490;28;20048;-38
2023/03/06 07:25:18;;;;;;;0.40;0.40;;;;;;;;;;5012277;28;20042;-41
2023/03/06 07:27:45;;;;;;;0.40;0.40;;;;;;;;;;5012882;28;20056;-38
2023/03/06 07:30:13;;;;;;;0.40;0.40;;;;;;;;;;5012849;28;20058;-40
2023/03/06 07:32:40;;;;;;;0.70;0.35;;;;;;;;;;5003845;28;20500;-41
2023/03/06 07:35:09;;;;;;;0.68;0.40;;;;;;;;;;5011215;28;20050;-40
2023/03/06 07:37:36;;;;;;;1.77;0.38;;;;;;;;;;5011403;28;20419;-39
2023/03/06 07:40:06;;;;;;;0.40;0.40;;;;;;;;;;5012292;28;20060;-35
2023/03/06 07:42:33;;;;;;;0.70;0.50;;;;;;;;;;5012480;28;20046;-41
2023/03/06 07:45:00;;;;;;;0.30;0.30;;;;;;;;;;5013011;28;20052;-41
2023/03/06 07:47:27;;;;;;;0.40;0.40;;;;;;;;;;5009891;28;20051;-40
2023/03/06 07:49:55;;;;;;;0.68;0.40;;;;;;;;;;5011869;28;20060;-38
2023/03/06 07:52:23;;;;;;;0.50;0.50;;;;;;;;;;5012179;28;20056;-34
2023/03/06 07:54:50;;;;;;;0.30;0.30;;;;;;;;;;5009904;28;20052;-37
2023/03/06 07:57:17;;;;;;;0.60;0.50;;;;;;;;;;5012740;28;20050;-38
2023/03/06 07:59:45;;;;;;;1.13;0.35;;;;;;;;;;5016227;28;20041;-38
2023/03/06 08:02:12;;;;;;;0.55;0.55;;;;;;;;;;5011975;28;20053;-41
2023/03/06 08:04:39;;;;;;;0.40;0.40;;;;;;;;;;5009144;28;20402;-40
2023/03/06 08:07:06;;;;;;;1.58;0.57;;;;;;;;;;5007471;28;20050;-40
2023/03/06 08:09:34;;;;;;;0.40;0.40;;;;;;;;;;5003234;28;20400;-38
2023/03/06 08:12:01;;;;;;;1.17;0.40;;;;;;;;;;5003425;28;20052;-37
2023/03/06 08:14:28;;;;;;;0.90;0.57;;;;;;;;;;5005637;28;20053;-36
2023/03/06 08:16:56;;;;;;;1.42;0.50;;;;;;;;;;5007849;28;20056;-36
2023/03/06 08:19:23;;;;;;;0.52;0.50;;;;;;;;;;5012063;28;20117;-35
2023/03/06 08:21:50;;;;;;;0.45;0.40;;;;;;;;;;5008861;28;20415;-41
2023/03/06 08:24:17;;;;;;;0.65;0.60;;;;;;;;;;4992110;28;20503;-36
2023/03/06 08:26:45;;;;;;;0.50;0.50;;;20.30;45.10;;;;;;4992432;28;20058;-40
2023/03/06 08:29:12;;;;;;;0.90;0.40;;;;;;;;;;5010720;28;20053;-40
2023/03/06 08:31:39;;;;;;;0.75;0.50;;;;;;;;;;5011578;28;20495;-36
2023/03/06 08:34:07;;;;;;;1.15;0.50;;;;;;;;;;5011466;28;20057;-40
2023/03/06 08:36:34;;;;;;;0.60;0.60;;;;;;;;;;5011343;28;20044;-39
2023/03/06 08:39:01;;;;;;;0.50;0.50;;;;;;;;;;5009958;28;20506;-36
2023/03/06 08:41:28;;;;;;;0.50;0.50;;;;;;;;;;5007548;28;20053;-38
2023/03/06 08:43:57;;;;;;;1.30;0.50;;;;;;;;;;5003050;28;20078;-36
2023/03/06 08:46:25;;;;;;;0.75;0.50;;;20.50;43.00;;;;;;5011764;28;20050;-38
2023/03/06 08:48:52;;;;;;;0.85;0.60;;;;;;;;;;5012115;28;20418;-37
2023/03/06 08:51:19;;;;;;;1.73;0.57;;;;;;;;;;5005877;28;20521;-37
2023/03/06 08:53:46;;;;;;;0.98;0.63;;;;;;;;;;5005992;28;20046;-37
2023/03/06 08:56:16;;;;;;;0.63;0.63;;;20.60;44.60;;;;;;5012137;28;20046;-37
2023/03/06 08:58:43;;;;;;;0.60;0.60;;;;;;;;;;5022490;28;20056;-40
2023/03/06 09:01:14;;;;;;;0.57;0.52;;;;;;;;;;5014256;28;20046;-37
2023/03/06 09:03:41;;;;;;;0.95;0.60;;;20.50;74.80;;;;;;5011610;28;20054;-37
2023/03/06 09:06:08;;;;;;;0.98;0.70;;;;;;;;;;5011959;28;20050;-37
2023/03/06 09:08:35;;;;;;;1.10;0.70;;;;;;;;;;5011413;28;20490;-40
2023/03/06 09:11:02;;;;;;;1.38;0.77;;;;;;;;;;5012477;28;20495;-37
2023/03/06 09:13:29;;;;;;;1.27;0.70;;;;;;;;;;5022220;28;20049;-37
2023/03/06 09:15:56;;;;;;;0.50;0.50;;;;;;;;;;5011798;28;20048;-38
2023/03/06 09:18:24;;;;;;;1.30;0.60;;;;;;;;;;5011816;28;20060;-37
2023/03/06 09:20:52;;;;;;;0.90;0.77;;;;;;;;;;5011534;28;20081;-37
2023/03/06 09:23:19;;;;;;;0.95;0.70;;;;;;;;;;5011594;28;20406;-39
2023/03/06 09:25:45;;;;;;;0.55;0.55;;;20.30;74.20;;;;;;5011391;28;20496;-41
2023/03/06 09:28:13;;;;;;;1.25;0.73;;;;;;;;;;5011709;28;20054;-41
2023/03/06 09:30:40;;;;;;;0.63;0.63;;;21.00;74.30;;;;;;5011677;28;20050;-38
2023/03/06 09:33:07;;;;;;;1.05;0.60;;;;;;;;;;5011457;28;20053;-35
2023/03/06 09:35:35;;;;;;;0.85;0.68;;;21.20;43.60;;;;;;5011765;28;20081;-38
2023/03/06 09:38:02;;;;;;;0.85;0.60;;;;;;;;;;5012828;28;20057;-40
2023/03/06 09:40:34;;;;;;;2.10;0.77;;;21.30;43.30;;;;;;5015351;28;20050;-39
2023/03/06 09:43:01;;;;;;;0.60;0.60;;;;;;;;;;5016110;28;20046;-41
2023/03/06 09:45:28;;;;;;;0.60;0.50;;;;;;;;;;5019202;28;20069;-39
2023/03/06 09:47:56;;;;;;;0.60;0.60;;;21.30;43.20;;;;;;5008810;28;20046;-35
2023/03/06 09:50:27;;;;;;;1.65;0.65;;;21.40;43.30;;;;;;5010430;28;20052;-37
2023/03/06 09:53:05;;;;;;;1.05;0.68;;;;;;;;;;5014569;28;20422;-40
2023/03/06 09:55:32;;;;;;;0.50;0.50;;;;;;;;;;5014611;28;20513;-40
2023/03/06 09:58:01;;;;;;;0.75;0.50;;;21.30;41.80;;;;;;5014783;28;20054;-37
2023/03/06 10:00:30;;;;;;;0.60;0.60;;;21.30;43.20;;;;;;5014883;28;20054;-37
2023/03/06 10:03:07;;;;;;;0.70;0.70;;;;;;;;;;5014104;28;20050;-37
2023/03/06 10:05:35;;;;;;;0.50;0.50;;;;;;;;;;5014615;28;20494;-38
2023/03/06 10:08:05;;;;;;;0.75;0.60;;;21.20;43.40;;;;;;5014672;28;20050;-38
2023/03/06 10:10:35;;;;;;;1.20;0.60;;;21.20;43.40;;;;;;5026700;28;20446;-39
2023/03/06 10:13:03;;;;;;;0.60;0.60;;;20.90;70.00;;;;;;5014273;28;20046;-38
2023/03/06 10:15:32;;;;;;;0.90;0.50;;;21.10;43.50;;;;;;5017741;28;20045;-35
2023/03/06 10:17:59;;;;;;;0.55;0.50;;;;;;;;;;5014245;28;20049;-40
2023/03/06 10:20:26;;;;;;;1.08;0.70;;;;;;;;;;5014486;28;20045;-39
2023/03/06 10:23:08;;;;;;;1.23;0.70;;;;;;;;;;5017373;28;20125;-40
2023/03/06 10:25:37;;;;;;;0.93;0.60;;;21.00;43.80;;;;;;5013907;28;20050;-36
2023/03/06 10:28:11;;;;;;;0.60;0.40;;;20.90;43.60;;;;;;5014293;28;20045;-39
2023/03/06 10:30:40;;;;;;;1.02;0.60;;;20.80;43.90;;;;;;5014457;28;20157;-37
2023/03/06 10:33:09;;;;;;;0.50;0.50;;;20.90;42.10;;;;;;5018163;28;20052;-36
2023/03/06 10:35:41;;;;;;;0.65;0.60;;;;;;;;;;5014158;28;20081;-40
2023/03/06 10:38:13;;;;;;;0.88;0.60;;;;;;;;;;5018848;28;20517;-40
2023/03/06 10:40:43;;;;;;;1.00;0.50;;;20.80;44.20;;;;;;5012505;28;20046;-37
2023/03/06 10:43:11;;;;;;;0.80;0.40;;;;;;;;;;5022706;28;20051;-40
2023/03/06 10:45:46;;;;;;;1.40;0.63;;;20.60;44.00;;;;;;5015169;28;20050;-39
2023/03/06 10:48:18;;;;;;;0.60;0.43;;;20.60;43.00;;;;;;5013909;28;20049;-36
2023/03/06 10:50:45;;;;;;;0.73;0.50;;;;;;;;;;5013671;28;20052;-37
2023/03/06 10:53:20;;;;;;;0.85;0.60;;;20.60;44.10;;;;;;5015204;28;20046;-38
2023/03/06 10:55:51;;;;;;;0.77;0.70;;;20.50;44.40;;;;;;5013575;28;20042;-39
2023/03/06 10:58:19;;;;;;;0.63;0.50;;;;;;;;;;5012637;28;20462;-39
2023/03/06 11:00:46;;;;;;;0.75;0.50;;;;;;;;;;5013597;28;20042;-36
2023/03/06 11:03:17;;;;;;;0.70;0.50;;;;;;;;;;5014388;28;20056;-41
2023/03/06 11:06:01;;;;;;;0.50;0.50;;;20.30;43.70;;;;;;5014940;28;20407;-38
2023/03/06 11:08:29;;;;;;;0.73;0.50;;;;;;;;;;5018177;28;20045;-36
2023/03/06 11:11:01;;;;;;;1.40;0.63;;;20.20;44.50;;;;;;5016160;28;20488;-38
2023/03/06 11:13:29;;;;;;;0.70;0.60;;;;;;;;;;5012488;28;20042;-37
2023/03/06 11:16:04;;;;;;;0.98;0.73;;;20.10;44.70;;;;;;5012321;28;20419;-37
2023/03/06 11:18:33;;;;;;;0.93;0.57;;;;;;;;;;5015792;28;20046;-38
2023/03/06 11:21:01;;;;;;;1.52;0.60;;;20.40;43.60;;;;;;5010581;28;20053;-40
2023/03/06 11:23:33;;;;;;;1.17;0.50;;;;;;;;;;5012383;28;20049;-41
2023/03/06 11:26:02;;;;;;;1.42;0.60;;;19.80;44.90;;;;;;5009614;28;20479;-40
2023/03/06 11:28:29;;;;;;;0.80;0.50;;;;;;;;;;5012037;28;20053;-39
2023/03/06 11:30:57;;;;;;;1.45;0.70;;;19.70;43.90;;;;;;5012376;28;20049;-41
2023/03/06 11:33:28;;;;;;;0.77;0.60;;;19.70;45.20;;;;;;5012382;28;20683;-40
2023/03/06 11:35:57;;;;;;;0.93;0.50;;;;;;;;;;5011832;28;20415;-35
2023/03/06 11:38:36;;;;;;;1.58;0.75;;;19.60;45.40;;;;;;5012780;28;20049;-41
2023/03/06 11:41:05;;;;;;;1.15;0.73;;;19.60;45.50;;;;;;5012719;28;20056;-38
2023/03/06 11:43:35;;;;;;;0.68;0.60;;;19.50;45.60;;;;;;5012563;28;20736;-40
2023/03/06 11:46:02;;;;;;;0.50;0.50;;;;;;;;;;5012787;28;20148;-40
2023/03/06 11:48:32;;;;;;;0.88;0.70;;;19.50;45.70;;;;;;5012816;28;20125;-41
2023/03/06 11:51:02;;;;;;;0.70;0.70;;;;;;;;;;5012524;28;20111;-40
2023/03/06 11:53:32;;;;;;;0.80;0.50;;;19.30;45.80;;;;;;5012437;28;20053;-41
2023/03/06 11:55:59;;;;;;;2.13;0.80;;;;;;;;;;5012623;28;20072;-40
2023/03/06 11:58:56;;;;;;;0.95;0.70;;;19.20;45.90;;;;;;5012374;28;20049;-41
2023/03/06 12:01:24;;;;;;;0.80;0.68;;;;;;;;;;4995810;28;20052;-37
2023/03/06 12:04:17;;;;;;;1.05;0.70;;;19.20;46.00;;;;;;5011550;28;20133;-37
2023/03/06 12:06:46;;;;;;;1.10;0.70;;;;;;;;;;5006122;28;20081;-38
2023/03/06 12:09:20;;;;;;;0.63;0.50;;;;;;;;;;5012431;28;20058;-38
2023/03/06 12:11:50;;;;;;;1.27;0.70;;;19.10;46.20;;;;;;5012276;28;20487;-41
2023/03/06 12:14:29;;;;;;;1.80;0.65;;;19.00;44.30;;;;;;5011840;28;20511;-40
2023/03/06 12:17:07;;;;;;;0.50;0.50;;;;;;;;;;5012007;28;20046;-36
2023/03/06 12:19:43;;;;;;;1.08;0.65;;;19.00;44.20;;;;;;4994466;28;20064;-37
2023/03/06 12:22:21;;;;;;;1.38;0.60;;;19.00;46.20;;;;;;4992480;28;20088;-33
2023/03/06 12:24:55;;;;;;;0.80;0.60;;;;;;;;;;4991846;28;20054;-38
2023/03/06 12:27:25;;;;;;;0.80;0.60;;;18.90;46.30;;;;;;4992572;28;20526;-41
2023/03/06 12:30:24;;;;;;;0.60;0.60;;;18.90;44.10;;;;;;4992216;28;20080;-38
2023/03/06 12:32:52;;;;;;;0.73;0.50;;;;;;;;;;4980384;28;20046;-40
2023/03/06 12:35:29;;;;;;;0.90;0.60;;;;;;;;;;5011880;28;20058;-41
2023/03/06 12:38:01;;;;;;;0.50;0.50;;;18.90;45.50;;;;;;5011919;28;20060;-41
2023/03/06 12:40:33;;;;;;;1.33;0.80;;;;;;;;;;5012134;28;20050;-41
2023/03/06 12:43:09;;;;;;;1.23;0.70;;;19.00;46.30;;;;;;5010800;28;20046;-41
2023/03/06 12:45:37;;;;;;;0.65;0.60;;;;;;;;;;5007100;28;20538;-41
2023/03/06 12:48:05;;;;;;;0.45;0.45;;;;;;;;;;5011950;28;20060;-41
2023/03/06 12:50:32;;;;;;;0.70;0.50;;;;;;;;;;5012217;28;20418;-40
2023/03/06 12:53:00;;;;;;;0.43;0.40;;;;;;;;;;5006128;28;20128;-38
2023/03/06 12:55:27;;;;;;;1.50;0.80;;;;;;;;;;4994913;28;20054;-41
2023/03/06 12:57:54;;;;;;;0.50;0.50;;;;;;;;;;4991741;28;20042;-39
2023/03/06 13:00:58;;;;;;;1.95;0.70;;;19.00;42.40;;;;;;5003232;28;20518;-36
2023/03/06 13:03:27;;;;;;;1.13;0.52;;;;;;;;;;5012058;28;20054;-40
2023/03/06 13:06:01;;;;;;;3.53;0.43;;;;;;;;;;5011740;28;20060;-37
2023/03/06 13:08:49;;;;;;;0.85;0.40;;;;;;;;;;5011481;28;20050;-39
2023/03/06 13:11:27;;;;;;;0.98;0.50;;;19.00;44.10;;;;;;5010305;28;20133;-41
2023/03/06 13:13:54;;;;;;;0.88;0.60;;;;;;;;;;5009606;28;20046;-40
2023/03/06 13:16:22;;;;;;;1.30;0.60;;;;;;;;;;5012927;28;20060;-40
2023/03/06 13:18:56;;;;;;;0.95;0.50;;;19.10;45.40;;;;;;5014039;28;20060;-41
2023/03/06 13:21:41;;;;;;;0.40;0.40;;;;;;;;;;5014433;28;20050;-41
2023/03/06 13:24:14;;;;;;;0.73;0.50;;;;;;;;;;5014008;28;20053;-40
2023/03/06 13:27:06;;;;;;;0.55;0.45;;;18.90;46.50;;;;;;5015517;28;20406;-37
2023/03/06 13:29:48;;;;;;;1.15;0.40;;;;;;;;;;5014916;28;20046;-38
2023/03/06 13:32:16;;;;;;;0.57;0.45;;;;;;;;;;5015340;28;20061;-41
2023/03/06 13:34:45;;;;;;;0.38;0.38;;;18.90;46.30;;;;;;5015053;28;20419;-41
2023/03/06 13:37:36;;;;;;;1.52;0.70;;;18.90;46.30;;;;;;5014385;28;20415;-36
2023/03/06 13:40:30;;;;;;;0.57;0.50;;;;;;;;;;5006002;28;20133;-31
2023/03/06 13:43:03;;;;;;;0.40;0.40;;;19.20;46.90;;;;;;4967747;28;20422;-31
2023/03/06 13:45:30;;;;;;;2.55;0.55;;;;;;;;;;5012347;28;20042;-31
2023/03/06 13:47:58;;;;;;;2.78;0.82;;;;;;;;;;5010530;28;20418;-32
2023/03/06 13:50:31;;;;;;;0.57;0.55;;;;;;;;;;5010611;28;20056;-37
2023/03/06 13:53:20;;;;;;;0.55;0.45;;;18.90;46.50;;;;;;5014414;28;20042;-32
2023/03/06 13:55:50;;;;;;;0.40;0.40;;;;;;;;;;5011934;28;20125;-34
2023/03/06 13:58:24;;;;;;;0.68;0.60;;;19.00;46.50;;;;;;5014329;28;20052;-32
2023/03/06 14:01:01;;;;;;;0.88;0.30;;;;;;;;;;5011942;28;20060;-35
2023/03/06 14:03:56;;;;;;;0.45;0.40;;;18.90;46.50;;;;;;5013421;28;20499;-32
2023/03/06 14:06:49;;;;;;;1.05;0.63;;;;;;;;;;5013488;28;20076;-32
2023/03/06 14:09:19;;;;;;;0.85;0.60;;;18.90;46.60;;;;;;5014228;28;20394;-33
2023/03/06 14:11:46;;;;;;;2.28;0.50;;;;;;;;;;5014429;28;20045;-32
2023/03/06 14:14:13;;;;;;;0.93;0.50;;;;;;;;;;5013893;28;20050;-32
2023/03/06 14:16:40;;;;;;;1.25;0.60;;;;;;;;;;5014718;28;20056;-32
2023/03/06 14:19:12;;;;;;;0.38;0.30;;;;;;;;;;5013795;28;20060;-31
2023/03/06 14:21:40;;;;;;;1.88;0.60;;;;;;;;;;5012127;28;20046;-32
2023/03/06 14:24:15;;;;;;;0.88;0.50;;;;;;;;;;5013355;28;20434;-33